Airfield :
LOGIN :

Register | Disclaimer

   EN    FR    IT 

 










Legend :    VFR   Marginal VFR   IFR   Intensive IFR   Very Intensive IFR
Visi :
Ceiling :
>= 8 km
>= 3000ft
5 to 8 km
1000 to 3000 ft
1500m to 5 km
500 to 1000 ft
800 to 1500m
200 to 500 ft
< 800m
< 200 ft
Symbols :   Thunderstorms  Fog  Heavy snow  Heavy precipitations  Wind > 20 kt
SIGMETs :     Misc.  Thunderstorms  Icing  Turbulence  Mountain Waves  Volcanic Ashes







- Airport Elevation : 194 ft


EBCV - Chièvres

CURRENT METAR :
  • 191625Z AUTO 31008KT 9999 FEW032/// OVC058/// 15/10 Q1020 BLU

EXPIRED METARs :
  • 191555Z AUTO 31008KT 9999 -RA FEW048/// BKN072/// 16/09 Q1020 BLU
  • 191525Z AUTO 30009KT 9999 NCD 17/08 Q1020 BLU
  • 191455Z AUTO 30006KT 9999 BKN074/// 17/09 Q1020 BLU
  • 191425Z AUTO 28009KT 9999 FEW069/// 17/10 Q1020 BLU
  • 191355Z AUTO 31007KT 9999 BKN037/// 16/09 Q1020 BLU

TAF TAF EBCV
Valid from the 19 at 13:00 until the 19 at 22:00 UTC


191141Z 1913/1922 33008KT 9999 FEW025 SCT030
TEMPO 1913/1918 33012KT 6000 -SHRA SCT020 BKN030 BY EBWM
No reported NOTAMs for that airfield.



MET'MAP, your aeronautical weather chart ! - Copyright ORBIFLY December 2007 - Disclaimer

ORBIFLY MET'MAP TEAM :

Programming & Development : Alexandra Zaïnal
Concept & Development : Baudouin d'Aumeries
Co-Development & Prog : Marc-Olivier Méhu
Technical & hardware support : Manuel Goepfert

Contact : metmap@orbifly.com




SOURCES & CREDITS :

   NOAA